Time;durP1;ratioP1;P1;durP2;ratioP2;P2;SDS_P1;SDS_P2;PMS_P1;PMS_P2;Temp;Humidity;BMP_temperature;BMP_pressure;BME280_temperature;BME280_humidity;BME280_pressure;Samples;Min_cycle;Max_cycle;Signal;HPM_P1;HPM_P2
2023/06/09 00:00:48;;;;;;;6.43;5.90;;;;;;;14.80;71.62;95315.00;6138563;23;20155;-83
2023/06/09 00:03:16;;;;;;;7.22;6.53;;;;;;;14.79;71.97;95325.66;6140221;23;20175;-83
2023/06/09 00:05:41;;;;;;;7.07;6.47;;;;;;;14.79;71.60;95315.19;6170926;23;20223;-82
2023/06/09 00:08:07;;;;;;;7.80;6.43;;;;;;;14.77;71.67;95325.84;6133017;23;20163;-84
2023/06/09 00:10:32;;;;;;;7.10;6.40;;;;;;;14.78;71.51;95321.41;6135906;23;20182;-84
2023/06/09 00:12:58;;;;;;;6.97;6.27;;;;;;;14.75;71.58;95325.19;6138033;23;20189;-82
2023/06/09 00:15:23;;;;;;;6.53;5.85;;;;;;;14.71;71.66;95319.50;6137249;23;20174;-82
2023/06/09 00:17:49;;;;;;;7.00;5.67;;;;;;;14.59;72.53;95331.38;6136427;23;20163;-84
2023/06/09 00:20:15;;;;;;;7.03;6.17;;;;;;;14.60;72.79;95321.75;6136625;23;20166;-82
2023/06/09 00:22:43;;;;;;;6.40;5.90;;;;;;;14.63;72.47;95321.38;6135705;23;20163;-84
2023/06/09 00:25:10;;;;;;;6.90;6.27;;;;;;;14.61;72.67;95318.94;6161769;23;20544;-83
2023/06/09 00:27:36;;;;;;;6.60;6.00;;;;;;;14.62;72.47;95309.31;6137363;23;20194;-83
2023/06/09 00:30:01;;;;;;;6.77;6.07;;;;;;;14.62;72.41;95301.47;6136924;23;20519;-84
2023/06/09 00:32:27;;;;;;;7.10;6.50;;;;;;;14.61;72.63;95305.06;6162197;23;20171;-83
2023/06/09 00:34:52;;;;;;;6.53;5.93;;;;;;;14.62;72.51;95306.69;6164988;23;20620;-82
2023/06/09 00:37:18;;;;;;;7.13;6.35;;;;;;;14.62;72.23;95310.13;6136948;23;20219;-84
2023/06/09 00:39:43;;;;;;;7.23;6.53;;;;;;;14.49;73.32;95309.94;6162626;23;20161;-85
2023/06/09 00:42:08;;;;;;;9.13;6.10;;;;;;;14.51;73.12;95301.91;6137752;23;20155;-82
2023/06/09 00:44:34;;;;;;;7.90;6.80;;;;;;;14.42;73.87;95301.13;6137769;23;20266;-84
2023/06/09 00:46:59;;;;;;;7.87;7.17;;;;;;;14.41;73.68;95302.94;6137122;23;20716;-84
2023/06/09 00:49:24;;;;;;;6.88;6.18;;;;;;;14.33;74.32;95299.59;6163914;23;20217;-83
2023/06/09 00:51:50;;;;;;;7.20;6.20;;;;;;;14.32;74.45;95303.19;6161436;23;20159;-84
2023/06/09 00:54:17;;;;;;;7.00;6.40;;;;;;;14.34;73.94;95306.44;6136486;23;20194;-83
2023/06/09 00:56:43;;;;;;;6.77;6.17;;;;;;;14.21;74.94;95300.97;6159968;23;20166;-84
2023/06/09 00:59:10;;;;;;;6.90;6.00;;;;;;;14.25;74.78;95305.69;6112032;23;20163;-82
2023/06/09 01:01:37;;;;;;;7.23;6.17;;;;;;;14.29;74.66;95304.34;6137452;23;20218;-83
2023/06/09 01:04:02;;;;;;;6.97;6.00;;;;;;;14.30;74.57;95300.72;6136527;23;20181;-84
2023/06/09 01:06:43;;;;;;;6.77;6.17;;;;;;;14.29;74.20;95304.34;6136555;23;20167;-84
2023/06/09 01:09:25;;;;;;;7.33;6.37;;;;;;;14.26;74.01;95302.09;6113129;23;20155;-85
2023/06/09 01:12:09;;;;;;;6.90;6.20;;;;;;;14.27;74.07;95300.28;6138457;23;20659;-85
2023/06/09 01:15:00;;;;;;;6.90;6.20;;;;;;;14.35;73.73;95302.84;6161965;23;20230;-83
2023/06/09 01:17:27;;;;;;;6.83;6.17;;;;;;;14.36;73.57;95307.88;6161126;23;20156;-84
2023/06/09 01:19:57;;;;;;;6.80;6.10;;;;;;;14.33;73.49;95303.00;6163180;23;20166;-85
2023/06/09 01:22:36;;;;;;;6.97;6.00;;;;;;;14.37;73.50;95303.47;6138402;23;20160;-84
2023/06/09 01:25:26;;;;;;;6.57;5.93;;;;;;;14.35;73.57;95303.63;6138993;23;20222;-83
2023/06/09 01:27:57;;;;;;;6.90;6.20;;;;;;;14.34;73.65;95303.81;6163147;23;20206;-85
2023/06/09 01:30:23;;;;;;;6.53;5.63;;;;;;;14.33;73.68;95299.59;6138136;23;20155;-84
2023/06/09 01:32:49;;;;;;;7.57;6.27;;;;;;;14.30;73.79;95298.13;6138406;23;20183;-85
2023/06/09 01:35:15;;;;;;;7.20;6.53;;;;;;;14.29;73.89;95308.75;6138269;23;20186;-84
2023/06/09 01:37:40;;;;;;;7.40;6.60;;;;;;;14.27;73.90;95292.44;6161968;23;20226;-83
2023/06/09 01:40:08;;;;;;;8.80;7.37;;;;;;;14.30;73.69;95294.69;6137295;23;20212;-84
2023/06/09 01:42:34;;;;;;;7.77;7.03;;;;;;;14.31;73.69;95298.94;6137671;23;20187;-83
2023/06/09 01:44:59;;;;;;;8.23;6.83;;;;;;;14.29;73.76;95290.47;6137463;23;20183;-85
2023/06/09 01:47:24;;;;;;;7.30;6.53;;;;;;;14.27;73.73;95290.66;6135879;23;20170;-83
2023/06/09 01:50:16;;;;;;;7.93;7.13;;;;;;;14.33;74.17;95289.94;6162100;23;20164;-84
2023/06/09 01:52:49;;;;;;;7.73;6.93;;;;;;;14.30;73.99;95284.25;6161434;23;20543;-84
2023/06/09 01:55:21;;;;;;;7.43;6.33;;;;;;;14.24;74.10;95285.78;6162018;23;20481;-84
2023/06/09 01:58:00;;;;;;;7.47;6.40;;;;;;;14.22;74.35;95282.53;6113152;23;20162;-83
2023/06/09 02:00:26;;;;;;;7.53;6.50;;;;;;;14.18;74.36;95281.25;6137900;23;20151;-84
2023/06/09 02:02:55;;;;;;;7.27;6.50;;;;;;;14.20;74.77;95278.47;6139487;23;20187;-83
2023/06/09 02:05:20;;;;;;;7.47;6.63;;;;;;;14.18;74.54;95273.44;6168356;23;20487;-82
2023/06/09 02:07:46;;;;;;;7.03;6.30;;;;;;;14.14;74.85;95269.56;6134778;23;20155;-83
2023/06/09 02:10:12;;;;;;;8.70;7.03;;;;;;;14.20;75.09;95275.84;6135687;23;20195;-85
2023/06/09 02:12:37;;;;;;;7.83;7.10;;;;;;;14.24;75.03;95282.38;6160337;23;20155;-85
2023/06/09 02:15:04;;;;;;;8.43;6.17;;;;;;;14.25;75.04;95282.19;6135686;23;20151;-84
2023/06/09 02:17:30;;;;;;;8.20;7.40;;;;;;;14.23;74.91;95276.34;6134702;23;20229;-85
2023/06/09 02:19:55;;;;;;;7.77;7.07;;;;;;;14.21;75.07;95270.44;6136517;23;20151;-85
2023/06/09 02:22:21;;;;;;;7.67;6.97;;;;;;;14.19;75.27;95269.81;6160812;23;20500;-85
2023/06/09 02:24:46;;;;;;;9.10;7.27;;;;;;;14.22;75.55;95272.06;6134971;23;20214;-82
2023/06/09 02:27:11;;;;;;;9.20;7.90;;;;;;;14.26;75.42;95270.75;6158602;23;20644;-84
2023/06/09 02:29:37;;;;;;;7.87;7.17;;;;;;;14.32;75.22;95264.00;6159359;23;20303;-84
2023/06/09 02:32:02;;;;;;;10.60;7.20;;;;;;;14.31;75.61;95271.03;6110125;23;20167;-85
2023/06/09 02:34:29;;;;;;;8.87;7.77;;;;;;;14.31;75.96;95265.81;6134069;23;20176;-84
2023/06/09 02:36:57;;;;;;;8.90;7.57;;;;;;;14.33;76.24;95276.91;6133282;23;20159;-82
2023/06/09 02:39:23;;;;;;;8.20;7.17;;;;;;;14.36;76.24;95276.53;6158663;23;20151;-83
2023/06/09 02:41:48;;;;;;;7.73;7.00;;;;;;;14.39;76.01;95270.94;6134303;23;20167;-85
2023/06/09 02:44:13;;;;;;;8.67;7.07;;;;;;;14.33;75.96;95274.28;6135041;23;20171;-84
2023/06/09 02:46:40;;;;;;;8.57;7.68;;;;;;;14.31;75.85;95273.66;6109474;23;20680;-83
2023/06/09 02:49:06;;;;;;;7.97;7.23;;;;;;;14.29;76.24;95275.59;6135193;23;20219;-81
2023/06/09 02:51:31;;;;;;;7.93;7.07;;;;;;;14.29;75.91;95272.19;6134893;23;20167;-83
2023/06/09 02:53:56;;;;;;;8.57;7.10;;;;;;;14.26;76.29;95275.97;6158801;23;20199;-83
2023/06/09 02:56:22;;;;;;;7.87;7.17;;;;;;;14.30;76.71;95279.03;6130926;23;20163;-83
2023/06/09 02:58:48;;;;;;;8.27;7.47;;;;;;;14.33;76.41;95284.72;6134295;23;20633;-83
2023/06/09 03:01:17;;;;;;;8.93;8.03;;;;;;;14.30;77.30;95277.22;6133969;23;20156;-82
2023/06/09 03:03:43;;;;;;;9.37;8.47;;;;;;;14.26;77.48;95283.81;6134601;23;20171;-83
2023/06/09 03:06:08;;;;;;;8.70;7.90;;;;;;;14.35;77.04;95287.16;6158178;23;20155;-84
2023/06/09 03:08:34;;;;;;;9.10;8.20;;;;;;;14.34;77.78;95278.50;6158530;23;20178;-82
2023/06/09 03:10:59;;;;;;;9.27;8.37;;;;;;;14.39;77.31;95276.16;6108948;23;20159;-83
2023/06/09 03:13:24;;;;;;;10.27;8.20;;;;;;;14.41;77.28;95276.81;6157754;23;20812;-84
2023/06/09 03:15:51;;;;;;;9.03;8.00;;;;;;;14.41;77.85;95274.22;6132703;23;20163;-83
2023/06/09 03:18:16;;;;;;;8.30;7.50;;;;;;;14.43;77.79;95276.63;6134213;23;20163;-86
2023/06/09 03:20:42;;;;;;;9.33;7.93;;;;;;;14.46;77.97;95284.13;6134277;23;20680;-83
2023/06/09 03:23:08;;;;;;;9.63;8.23;;;;;;;14.45;77.68;95283.31;6133372;23;20187;-83
2023/06/09 03:25:33;;;;;;;9.13;8.23;;;;;;;14.51;77.88;95286.22;6157482;23;20159;-84
2023/06/09 03:27:59;;;;;;;9.67;8.73;;;;;;;14.50;77.55;95276.78;6156237;23;20640;-84
2023/06/09 03:30:24;;;;;;;10.73;7.93;;;;;;;14.61;77.38;95284.16;6134093;23;20151;-84
2023/06/09 03:32:50;;;;;;;9.80;8.50;;;;;;;14.62;77.91;95283.19;6111549;23;20176;-85
2023/06/09 03:35:16;;;;;;;9.20;8.40;;;;;;;14.72;77.52;95281.09;6138151;23;20167;-82
2023/06/09 03:37:41;;;;;;;9.47;8.57;;;;;;;14.71;76.93;95276.88;6136604;23;20198;-85
2023/06/09 03:40:07;;;;;;;11.27;8.40;;;;;;;14.78;76.98;95284.81;6135806;23;20155;-84
2023/06/09 03:42:32;;;;;;;9.57;8.67;;;;;;;14.83;77.31;95280.66;6159563;23;20159;-81
2023/06/09 03:44:58;;;;;;;10.10;9.10;;;;;;;14.94;76.38;95288.06;6132602;23;20213;-85
2023/06/09 03:47:24;;;;;;;8.30;7.60;;;;;;;15.15;75.66;95282.09;6155964;23;20143;-84
2023/06/09 03:49:49;;;;;;;12.03;8.43;;;;;;;15.44;74.25;95289.06;6131476;23;20235;-83
2023/06/09 03:52:15;;;;;;;9.63;8.10;;;;;;;16.47;70.20;95287.91;6131373;23;20665;-83
2023/06/09 03:54:40;;;;;;;8.98;8.13;;;;;;;17.30;67.00;95285.38;6130776;23;20191;-81
2023/06/09 03:57:06;;;;;;;8.63;7.78;;;;;;;18.30;61.66;95287.31;6129394;23;20182;-83
2023/06/09 03:59:31;;;;;;;7.72;6.93;;;;;;;19.04;56.84;95284.41;6109335;23;20194;-81
2023/06/09 04:01:56;;;;;;;8.07;7.20;;;;;;;19.76;55.06;95287.81;6131345;23;20483;-82
2023/06/09 04:04:22;;;;;;;8.13;7.32;;;;;;;19.93;55.43;95285.50;6148117;23;20175;-83
2023/06/09 04:06:47;;;;;;;7.38;6.68;;;;;;;21.29;51.23;95290.91;6115587;23;20174;-83
2023/06/09 04:09:13;;;;;;;7.40;6.75;;;;;;;21.60;48.93;95283.84;6162233;23;20152;-81
2023/06/09 04:11:39;;;;;;;7.25;6.55;;;;;;;22.18;46.30;95292.03;6112940;23;20182;-83
2023/06/09 04:14:05;;;;;;;7.55;6.75;;;;;;;22.04;47.16;95290.56;6137404;23;20653;-83
2023/06/09 04:16:31;;;;;;;6.90;6.22;;;;;;;23.43;44.05;95297.06;6139166;23;20251;-83
2023/06/09 04:18:56;;;;;;;7.78;6.90;;;;;;;22.91;45.52;95292.72;6139562;23;20159;-84
2023/06/09 04:21:21;;;;;;;7.30;6.70;;;;;;;23.06;45.49;95295.72;6163763;23;20189;-85
2023/06/09 04:23:47;;;;;;;7.53;6.90;;;;;;;23.52;43.25;95291.41;6114655;23;20201;-85
2023/06/09 04:26:13;;;;;;;8.10;7.40;;;;;;;23.79;41.78;95299.66;6137477;23;20729;-84
2023/06/09 04:28:39;;;;;;;7.70;7.00;;;;;;;24.65;41.47;95305.69;6139004;23;20163;-84
2023/06/09 04:31:07;;;;;;;7.40;6.70;;;;;;;24.39;41.08;95297.31;6137866;23;20713;-85
2023/06/09 04:33:35;;;;;;;8.48;7.30;;;;;;;23.93;41.29;95299.09;6139677;23;20638;-86
2023/06/09 04:36:03;;;;;;;8.88;6.90;;;;;;;25.71;36.96;95298.47;6155683;23;20613;-85
2023/06/09 04:38:32;;;;;;;8.02;7.22;;;;;;;25.45;38.17;95293.88;6156836;23;20151;-84
2023/06/09 04:41:01;;;;;;;7.53;6.93;;;;;;;26.50;35.69;95296.13;6158464;23;20155;-84
2023/06/09 04:43:27;;;;;;;6.90;6.30;;;;;;;27.27;34.50;95289.47;6160814;23;20226;-85
2023/06/09 04:45:55;;;;;;;7.40;6.70;;;;;;;26.96;35.46;95293.00;6163194;23;20151;-84
2023/06/09 04:48:21;;;;;;;7.30;6.60;;;;;;;26.04;37.04;95294.81;6135794;23;20163;-83
2023/06/09 04:50:47;;;;;;;7.22;6.57;;;;;;;27.15;35.21;95301.41;6158505;23;20864;-83
2023/06/09 04:53:15;;;;;;;7.60;6.90;;;;;;;27.93;33.52;95302.34;6133692;23;20181;-84
2023/06/09 04:55:40;;;;;;;7.47;6.38;;;;;;;26.82;35.42;95303.28;6159698;23;20214;-83
2023/06/09 04:58:06;;;;;;;6.50;5.88;;;;;;;28.12;34.07;95306.13;6156867;23;20210;-83
2023/06/09 05:00:31;;;;;;;7.68;6.43;;;;;;;28.31;32.80;95306.44;6157816;23;20159;-84
2023/06/09 05:03:05;;;;;;;7.00;6.30;;;;;;;27.59;34.13;95307.25;6160435;23;20175;-84
2023/06/09 05:05:31;;;;;;;6.28;5.78;;;;;;;28.94;32.71;95306.25;6158614;23;20166;-84
2023/06/09 05:07:56;;;;;;;6.50;6.00;;;;;;;29.24;31.53;95313.41;6133073;23;20609;-82
2023/06/09 05:10:21;;;;;;;7.03;6.38;;;;;;;29.46;31.27;95313.91;6159888;23;20151;-85
2023/06/09 05:12:47;;;;;;;6.75;6.15;;;;;;;28.46;32.83;95311.81;6159847;23;20179;-83
2023/06/09 05:15:13;;;;;;;6.32;5.75;;;;;;;29.92;30.25;95311.06;6158822;23;20158;-82
2023/06/09 05:17:41;;;;;;;6.75;6.25;;;;;;;29.75;30.23;95310.63;6160311;23;20175;-82
2023/06/09 05:20:08;;;;;;;6.40;5.90;;;;;;;30.00;30.45;95318.53;6134794;23;20159;-83
2023/06/09 05:22:33;;;;;;;6.20;5.60;;;;;;;30.02;30.20;95323.59;6161288;23;20155;-84
2023/06/09 05:24:59;;;;;;;6.22;5.63;;;;;;;30.20;29.60;95323.00;6160018;23;20162;-85
2023/06/09 05:27:24;;;;;;;7.10;6.40;;;;;;;30.47;29.41;95327.94;6134328;23;20250;-85
2023/06/09 05:29:49;;;;;;;6.53;5.97;;;;;;;30.86;29.29;95325.28;6161826;23;20155;-85
2023/06/09 05:32:15;;;;;;;7.20;6.50;;;;;;;28.96;32.15;95328.94;6162843;23;20182;-84
2023/06/09 05:34:40;;;;;;;6.85;6.15;;;;;;;29.67;31.47;95329.91;6162159;23;20184;-85
2023/06/09 05:37:06;;;;;;;6.80;6.25;;;;;;;30.47;29.54;95333.28;6133761;23;20198;-85
2023/06/09 05:39:31;;;;;;;6.30;5.68;;;;;;;31.87;28.25;95343.38;6161200;23;20162;-85
2023/06/09 05:41:57;;;;;;;7.05;6.35;;;;;;;31.18;28.66;95331.94;6135075;23;20161;-83
2023/06/09 05:44:22;;;;;;;6.10;5.60;;;;;;;31.04;28.76;95341.75;6161034;23;20172;-85
2023/06/09 05:46:47;;;;;;;6.00;5.40;;;;;;;31.54;27.60;95346.66;6134191;23;20166;-85
2023/06/09 05:49:12;;;;;;;6.25;5.80;;;;;;;30.32;30.00;95347.59;6159873;23;20167;-86
2023/06/09 05:51:38;;;;;;;6.32;5.72;;;;;;;30.68;29.85;95342.03;6160815;23;20177;-85
2023/06/09 05:54:03;;;;;;;5.90;5.35;;;;;;;30.99;28.87;95337.22;6134202;23;20206;-84
2023/06/09 05:56:29;;;;;;;5.97;5.50;;;;;;;32.17;27.65;95339.50;6157679;23;20151;-82
2023/06/09 05:59:02;;;;;;;6.40;5.78;;;;;;;30.65;29.26;95335.34;6158801;23;20156;-84
2023/06/09 06:01:27;;;;;;;10.85;5.68;;;;;;;30.29;29.79;95342.78;6135293;23;20139;-83
2023/06/09 06:03:53;;;;;;;6.10;5.50;;;;;;;30.93;28.80;95346.41;6135544;23;20179;-85
2023/06/09 06:06:18;;;;;;;5.40;5.00;;;;;;;31.04;29.07;95347.13;6134855;23;20166;-85
2023/06/09 06:08:44;;;;;;;5.32;4.88;;;;;;;31.40;28.33;95344.94;6163928;23;20624;-83
2023/06/09 06:11:09;;;;;;;6.18;5.68;;;;;;;31.78;27.38;95348.56;6163019;23;20597;-84
2023/06/09 06:13:34;;;;;;;5.68;5.18;;;;;;;31.59;28.13;95348.47;6136193;23;20179;-84
2023/06/09 06:16:00;;;;;;;6.38;5.55;;;;;;;30.90;29.64;95346.94;6136682;23;20157;-83
2023/06/09 06:18:25;;;;;;;5.32;4.93;;;;;;;31.44;28.26;95348.63;6136968;23;20209;-85
2023/06/09 06:20:51;;;;;;;5.50;4.97;;;;;;;32.75;26.13;95361.53;6137133;23;20170;-85
2023/06/09 06:23:16;;;;;;;5.78;5.28;;;;;;;30.62;29.63;95346.59;6136394;23;20171;-84
2023/06/09 06:25:41;;;;;;;5.70;5.20;;;;;;;31.70;28.26;95354.53;6113426;23;20159;-86
2023/06/09 06:28:07;;;;;;;5.45;5.03;;;;;;;31.42;27.90;95348.13;6136753;23;20182;-84
2023/06/09 06:30:33;;;;;;;5.30;4.85;;;;;;;31.92;27.97;95357.53;6163192;23;20182;-84
2023/06/09 06:32:58;;;;;;;5.13;4.65;;;;;;;32.69;26.39;95360.03;6163134;23;20186;-84
2023/06/09 06:35:28;;;;;;;5.35;4.85;;;;;;;31.15;28.97;95354.78;6137115;23;20501;-83
2023/06/09 06:37:53;;;;;;;4.45;4.07;;;;;;;33.02;26.28;95360.88;6163204;23;20486;-84
2023/06/09 06:40:19;;;;;;;5.47;4.97;;;;;;;32.22;26.65;95352.84;6137070;23;20266;-84
2023/06/09 06:42:44;;;;;;;5.43;4.93;;;;;;;31.42;27.94;95351.59;6136982;23;20190;-84
2023/06/09 06:45:10;;;;;;;5.35;4.85;;;;;;;31.69;27.34;95355.63;6115175;23;20242;-85
2023/06/09 06:47:35;;;;;;;6.22;5.63;;;;;;;31.37;28.29;95350.88;6162234;23;20246;-83
2023/06/09 06:50:01;;;;;;;5.15;4.65;;;;;;;32.23;28.25;95347.19;6138053;23;20159;-83
2023/06/09 06:52:26;;;;;;;5.45;4.93;;;;;;;31.04;29.25;95355.16;6139781;23;20159;-84
2023/06/09 06:54:52;;;;;;;5.43;4.93;;;;;;;32.44;27.73;95357.72;6150040;23;20185;-83
2023/06/09 06:57:17;;;;;;;5.75;5.25;;;;;;;32.49;26.87;95357.63;6147639;23;20162;-85
2023/06/09 06:59:42;;;;;;;6.15;4.85;;;;;;;31.88;28.28;95361.06;6148581;23;20159;-84
2023/06/09 07:02:08;;;;;;;5.38;4.97;;;;;;;32.06;27.76;95363.78;6141744;23;20159;-85
2023/06/09 07:04:33;;;;;;;5.43;4.93;;;;;;;32.48;27.67;95364.88;6141209;23;20182;-83
2023/06/09 07:06:58;;;;;;;5.20;4.80;;;;;;;31.80;28.69;95359.81;6139871;23;20161;-84
2023/06/09 07:09:25;;;;;;;5.07;4.68;;;;;;;31.05;28.75;95368.28;6140323;23;20160;-85
2023/06/09 07:11:50;;;;;;;4.72;4.40;;;;;;;31.20;28.62;95367.34;6139302;23;20171;-84
2023/06/09 07:14:15;;;;;;;5.03;4.60;;;;;;;32.12;26.94;95375.28;6138287;23;20187;-84
2023/06/09 07:16:41;;;;;;;5.32;4.82;;;;;;;31.15;28.78;95384.28;6111438;23;20609;-84
2023/06/09 07:19:08;;;;;;;4.93;4.20;;;;;;;32.23;26.64;95379.44;6162938;23;20159;-83
2023/06/09 07:21:33;;;;;;;5.00;4.60;;;;;;;31.36;27.02;95374.19;6137802;23;20155;-84
2023/06/09 07:23:59;;;;;;;4.80;4.28;;;;;;;31.24;27.17;95374.56;6136872;23;20482;-85
2023/06/09 07:26:25;;;;;;;5.32;4.40;;;;;;;30.53;28.49;95387.66;6136847;23;20166;-85
2023/06/09 07:28:50;;;;;;;4.85;4.45;;;;;;;30.86;27.41;95378.09;6137732;23;20167;-83
2023/06/09 07:31:15;;;;;;;4.72;4.32;;;;;;;30.49;28.38;95379.38;6137850;23;20166;-83
2023/06/09 07:33:41;;;;;;;4.35;4.05;;;;;;;30.36;28.07;95377.28;6137212;23;20526;-84
2023/06/09 07:36:10;;;;;;;4.90;4.50;;;;;;;30.49;29.24;95383.94;6136596;23;20353;-84
2023/06/09 07:38:35;;;;;;;4.65;4.22;;;;;;;29.80;29.59;95377.50;6138312;23;20171;-84
2023/06/09 07:41:00;;;;;;;5.35;4.85;;;;;;;29.16;31.06;95384.28;6137020;23;20704;-83
2023/06/09 07:43:26;;;;;;;5.05;4.65;;;;;;;28.88;31.91;95382.09;6136522;23;20178;-84
2023/06/09 07:45:51;;;;;;;5.20;4.57;;;;;;;29.47;30.51;95379.69;6135621;23;20163;-83
2023/06/09 07:48:17;;;;;;;5.20;4.20;;;;;;;29.35;30.01;95376.53;6137172;23;20166;-82
2023/06/09 07:50:42;;;;;;;5.03;4.10;;;;;;;29.32;31.33;95382.38;6162908;23;20162;-82
2023/06/09 07:53:07;;;;;;;5.20;4.70;;;;;;;29.00;31.62;95386.16;6138790;23;20186;-83
2023/06/09 07:55:33;;;;;;;6.32;4.50;;;;;;;29.09;31.03;95389.09;6137228;23;20248;-83
2023/06/09 07:57:58;;;;;;;4.95;4.55;;;;;;;29.01;31.46;95385.09;6134784;23;20163;-81
2023/06/09 08:00:23;;;;;;;4.80;4.13;;;;;;;28.42;31.67;95382.03;6163320;23;20227;-82
2023/06/09 08:02:50;;;;;;;5.38;4.65;;;;;;;27.88;32.70;95387.69;6162642;23;20253;-84
2023/06/09 08:05:16;;;;;;;5.47;4.57;;;;;;;28.61;31.71;95377.81;6138232;23;20704;-83
2023/06/09 08:07:41;;;;;;;4.80;4.40;;;;;;;28.69;33.26;95376.47;6137021;23;20163;-84
2023/06/09 08:10:07;;;;;;;4.85;4.35;;;;;;;27.92;32.59;95378.13;6137993;23;20266;-83
2023/06/09 08:12:32;;;;;;;4.90;4.50;;;;;;;28.82;32.43;95378.63;6137901;23;20218;-85
2023/06/09 08:14:58;;;;;;;5.13;4.63;;;;;;;28.43;33.22;95380.97;6136258;23;20629;-82
2023/06/09 08:17:23;;;;;;;5.82;4.75;;;;;;;28.25;32.67;95374.22;6113006;23;20507;-84
2023/06/09 08:19:48;;;;;;;5.22;4.75;;;;;;;27.82;33.30;95367.38;6162556;23;20166;-83
2023/06/09 08:22:14;;;;;;;6.15;4.68;;;;;;;27.77;33.07;95364.72;6137198;23;20593;-84
2023/06/09 08:24:39;;;;;;;83.65;49.83;;;;;;;27.55;34.47;95370.16;6138147;23;20181;-84
2023/06/09 08:27:07;;;;;;;12.90;9.45;;;;;;;26.97;34.90;95367.34;6136550;23;20175;-83
2023/06/09 08:29:32;;;;;;;6.25;5.18;;;;;;;26.70;34.89;95362.06;6139198;23;20159;-84
2023/06/09 08:31:57;;;;;;;6.05;4.53;;;;;;;26.58;36.27;95361.41;6137048;23;20335;-83
2023/06/09 08:34:22;;;;;;;5.00;4.47;;;;;;;26.63;36.97;95356.13;6161776;23;20543;-83
2023/06/09 08:36:48;;;;;;;5.10;4.55;;;;;;;26.94;36.44;95353.72;6136304;23;20163;-84
2023/06/09 08:39:13;;;;;;;4.95;4.55;;;;;;;26.78;36.75;95356.28;6160495;23;20190;-82
2023/06/09 08:41:39;;;;;;;6.43;4.53;;;;;;;26.97;36.23;95353.22;6136854;23;20163;-83
2023/06/09 08:44:05;;;;;;;5.35;4.85;;;;;;;27.03;36.21;95353.03;6160947;23;20173;-84
2023/06/09 08:46:37;;;;;;;6.28;4.85;;;;;;;26.82;36.91;95357.34;6135553;23;20163;-82
2023/06/09 08:49:03;;;;;;;4.80;4.15;;;;;;;26.82;36.37;95345.91;6162025;23;20151;-82
2023/06/09 08:51:28;;;;;;;4.68;3.80;;;;;;;26.88;35.56;95349.44;6160879;23;20238;-84
2023/06/09 08:53:54;;;;;;;6.82;4.80;;;;;;;26.57;34.81;95343.03;6161754;23;20175;-84
2023/06/09 08:56:23;;;;;;;5.13;4.70;;;;;;;26.59;36.93;95344.38;6109612;23;20155;-81
2023/06/09 08:58:49;;;;;;;5.03;4.38;;;;;;;26.00;36.52;95341.63;6112059;23;20193;-84
2023/06/09 09:01:17;;;;;;;5.53;3.58;;;;;;;26.25;36.25;95347.22;6111940;23;20159;-84
2023/06/09 09:03:42;;;;;;;4.50;4.10;;;;;;;26.35;35.72;95346.53;6136444;23;20625;-84
2023/06/09 09:06:08;;;;;;;4.72;4.32;;;;;;;26.37;35.50;95352.38;6135299;23;20194;-84
2023/06/09 09:08:33;;;;;;;6.25;4.30;;;;;;;26.10;36.08;95359.56;6136986;23;20245;-83
2023/06/09 09:10:59;;;;;;;4.25;3.90;;;;;;;26.64;36.80;95351.59;6136404;23;20166;-84
2023/06/09 09:13:30;;;;;;;4.40;4.00;;;;;;;27.02;34.99;95350.56;6136050;23;20183;-83
2023/06/09 09:16:00;;;;;;;4.80;4.40;;;;;;;26.46;36.08;95358.09;6111850;23;20271;-82
2023/06/09 09:18:30;;;;;;;5.05;4.65;;;;;;;25.80;35.89;95355.50;6137484;23;20169;-84
2023/06/09 09:20:56;;;;;;;9.20;4.68;;;;;;;26.03;35.58;95359.75;6137327;23;20546;-83
2023/06/09 09:23:32;;;;;;;7.90;4.22;;;;;;;26.04;37.20;95358.69;6136925;23;20230;-82
2023/06/09 09:26:02;;;;;;;5.00;4.18;;;;;;;25.88;36.58;95355.03;6135398;23;20572;-84
2023/06/09 09:28:41;;;;;;;5.95;4.10;;;;;;;26.32;37.22;95354.19;6113356;23;20177;-83
2023/06/09 09:31:11;;;;;;;4.82;4.43;;;;;;;26.66;36.29;95358.28;6112661;23;20163;-83
2023/06/09 09:33:39;;;;;;;4.75;4.35;;;;;;;26.94;35.92;95353.72;6111865;23;20195;-82
2023/06/09 09:36:09;;;;;;;5.00;4.53;;;;;;;25.82;35.63;95348.06;6134899;23;20160;-84
2023/06/09 09:38:34;;;;;;;4.90;4.50;;;;;;;25.46;36.52;95348.63;6160147;23;20598;-84
2023/06/09 09:41:00;;;;;;;4.32;3.92;;;;;;;25.12;37.66;95354.00;6160971;23;20159;-81
2023/06/09 09:43:27;;;;;;;7.25;4.05;;;;;;;24.80;38.23;95335.13;6138366;23;20171;-84
2023/06/09 09:45:54;;;;;;;3.95;3.35;;;;;;;24.73;37.29;95335.28;6137210;23;20155;-83
2023/06/09 09:48:22;;;;;;;4.03;3.72;;;;;;;24.73;38.66;95339.78;6137842;23;20155;-82
2023/06/09 09:50:48;;;;;;;3.90;3.50;;;;;;;24.83;36.72;95338.13;6137496;23;20160;-83
2023/06/09 09:53:15;;;;;;;4.38;3.97;;;;;;;25.49;38.04;95332.19;6137793;23;20182;-82
2023/06/09 09:55:45;;;;;;;4.57;4.18;;;;;;;25.84;36.05;95337.19;6162471;23;20151;-81
2023/06/09 09:58:11;;;;;;;3.88;3.58;;;;;;;25.18;37.48;95338.91;6111445;23;20160;-82
2023/06/09 10:00:38;;;;;;;4.55;3.83;;;;;;;25.70;35.72;95339.34;6136998;23;20867;-83
2023/06/09 10:03:12;;;;;;;6.25;3.92;;;;;;;26.05;36.41;95341.66;6137400;23;20203;-84
2023/06/09 10:05:39;;;;;;;5.15;4.55;;;;;;;25.75;36.78;95338.66;6137280;23;20154;-84
2023/06/09 10:08:05;;;;;;;8.38;5.05;;;;;;;25.66;37.44;95333.75;6114590;23;20624;-82
2023/06/09 10:10:31;;;;;;;7.25;4.05;;;;;;;26.44;37.35;95326.41;6162748;23;20498;-83
2023/06/09 10:12:57;;;;;;;4.35;3.67;;;;;;;26.62;35.09;95333.22;6137522;23;20179;-83
2023/06/09 10:15:23;;;;;;;5.13;4.72;;;;;;;26.87;34.59;95335.31;6115584;23;20160;-80
2023/06/09 10:17:52;;;;;;;7.13;4.00;;;;;;;27.14;33.79;95335.25;6138316;23;20594;-81
2023/06/09 10:20:18;;;;;;;4.85;4.18;;;;;;;27.37;34.17;95334.84;6137642;23;20191;-81
2023/06/09 10:22:44;;;;;;;4.50;4.10;;;;;;;27.15;34.93;95334.19;6138023;23;20155;-83
2023/06/09 10:25:11;;;;;;;4.82;3.88;;;;;;;27.62;34.04;95336.84;6137481;23;20206;-82
2023/06/09 10:27:36;;;;;;;5.03;4.63;;;;;;;26.98;33.88;95338.84;6111748;23;20259;-83
2023/06/09 10:30:03;;;;;;;4.63;4.05;;;;;;;26.51;34.99;95339.53;6160260;23;20151;-82
2023/06/09 10:32:29;;;;;;;4.90;4.38;;;;;;;26.50;36.19;95332.56;6110727;23;20159;-82
2023/06/09 10:34:56;;;;;;;4.00;3.70;;;;;;;26.58;35.56;95334.78;6136321;23;20171;-81
2023/06/09 10:37:29;;;;;;;4.45;4.05;;;;;;;26.74;36.67;95333.03;6111577;23;20159;-81
2023/06/09 10:40:30;;;;;;;4.53;3.60;;;;;;;26.69;34.02;95338.34;6137032;23;20182;-83
2023/06/09 10:43:20;;;;;;;3.90;3.60;;;;;;;26.95;35.00;95324.19;6161393;23;20859;-84
2023/06/09 10:45:52;;;;;;;4.13;3.67;;;;;;;26.78;35.37;95340.28;6159736;23;20152;-81
2023/06/09 10:48:43;;;;;;;4.47;4.07;;;;;;;26.99;35.96;95335.13;6137191;23;20159;-81
2023/06/09 10:51:27;;;;;;;5.63;3.95;;;;;;;26.48;35.28;95332.03;6163817;23;20140;-83
2023/06/09 10:54:22;;;;;;;4.07;3.78;;;;;;;26.89;34.25;95330.50;6164795;23;20227;-82
2023/06/09 10:56:52;;;;;;;4.13;3.40;;;;;;;27.10;33.83;95326.16;6132906;23;20621;-84
2023/06/09 10:59:24;;;;;;;4.18;3.60;;;;;;;26.96;34.62;95314.31;6138247;23;20178;-83
2023/06/09 11:02:01;;;;;;;4.88;3.65;;;;;;;27.03;34.08;95320.22;6160833;23;20167;-83
2023/06/09 11:04:44;;;;;;;4.50;4.10;;;;;;;27.41;34.03;95324.50;6162509;23;20179;-82
2023/06/09 11:07:09;;;;;;;5.72;3.60;;;;;;;26.91;33.97;95323.06;6163153;23;20142;-82
2023/06/09 11:09:34;;;;;;;3.70;3.40;;;;;;;27.34;33.79;95324.72;6161190;23;20163;-84
2023/06/09 11:12:00;;;;;;;3.88;3.58;;;;;;;27.23;34.67;95323.06;6137249;23;20672;-84
2023/06/09 11:14:43;;;;;;;11.40;4.25;;;;;;;27.27;33.94;95316.13;6136347;23;20190;-83
2023/06/09 11:17:25;;;;;;;3.55;3.25;;;;;;;27.71;32.90;95325.72;6160066;23;20167;-82
2023/06/09 11:20:06;;;;;;;5.68;3.90;;;;;;;27.12;32.46;95323.22;6162281;23;20142;-83
2023/06/09 11:22:32;;;;;;;4.03;3.65;;;;;;;27.71;31.91;95318.53;6162372;23;20147;-83
2023/06/09 11:24:58;;;;;;;4.43;3.42;;;;;;;26.56;32.54;95310.25;6135848;23;20155;-84
2023/06/09 11:27:23;;;;;;;6.13;3.90;;;;;;;27.16;33.42;95309.16;6133912;23;20225;-83
2023/06/09 11:30:09;;;;;;;4.20;3.80;;;;;;;27.71;32.88;95310.50;6111290;23;20167;-81
2023/06/09 11:32:44;;;;;;;4.35;3.95;;;;;;;27.16;32.75;95305.69;6112569;23;20489;-83
2023/06/09 11:35:10;;;;;;;4.35;3.95;;;;;;;26.61;33.43;95315.66;6161948;23;20197;-83